Time;durP1;ratioP1;P1;durP2;ratioP2;P2;SDS_P1;SDS_P2;PMS_P1;PMS_P2;Temp;Humidity;BMP_temperature;BMP_pressure;BME280_temperature;BME280_humidity;BME280_pressure;Samples;Min_cycle;Max_cycle;Signal;HPM_P1;HPM_P2
2024/02/24 00:00:05;;;;;;;0.60;0.60;;;7.00;99.90;;;;;;5041516;28;20027;-31
2024/02/24 00:02:31;;;;;;;0.60;0.60;;;6.90;99.90;;;;;;5041361;28;20039;-33
2024/02/24 00:04:57;;;;;;;0.80;0.80;;;6.90;99.90;;;;;;5043172;28;20021;-36
2024/02/24 00:07:23;;;;;;;0.70;0.70;;;6.90;99.90;;;;;;5041743;28;20045;-37
2024/02/24 00:09:48;;;;;;;0.98;0.88;;;6.80;99.90;;;;;;5042163;28;20060;-39
2024/02/24 00:12:14;;;;;;;0.80;0.70;;;6.80;99.90;;;;;;5042521;28;20453;-38
2024/02/24 00:14:40;;;;;;;1.50;0.90;;;6.80;99.90;;;;;;5042533;28;20183;-36
2024/02/24 00:17:05;;;;;;;1.15;0.85;;;6.70;99.90;;;;;;5041181;28;20068;-35
2024/02/24 00:19:31;;;;;;;2.60;1.00;;;6.70;99.90;;;;;;5042454;28;20448;-36
2024/02/24 00:21:57;;;;;;;1.88;0.98;;;6.70;99.90;;;;;;5042620;28;20028;-34
2024/02/24 00:24:22;;;;;;;1.08;0.98;;;6.60;99.90;;;;;;5042120;28;20021;-33
2024/02/24 00:26:48;;;;;;;1.42;1.00;;;6.60;99.90;;;;;;5041776;28;20037;-32
2024/02/24 00:29:13;;;;;;;1.83;1.17;;;6.60;99.90;;;;;;5041945;28;20204;-36
2024/02/24 00:31:40;;;;;;;2.08;1.10;;;6.50;99.90;;;;;;5040831;28;20116;-34
2024/02/24 00:34:06;;;;;;;2.33;1.30;;;6.60;99.90;;;;;;5042074;28;20112;-34
2024/02/24 00:36:32;;;;;;;1.77;1.00;;;6.50;99.90;;;;;;5041412;28;20021;-35
2024/02/24 00:38:58;;;;;;;1.63;1.23;;;6.50;99.90;;;;;;5040937;28;20087;-36
2024/02/24 00:41:23;;;;;;;0.93;0.75;;;6.50;99.90;;;;;;5041266;28;20036;-34
2024/02/24 00:43:49;;;;;;;1.33;1.17;;;6.50;99.90;;;;;;5041741;28;20033;-35
2024/02/24 00:46:14;;;;;;;1.48;1.30;;;6.40;99.90;;;;;;5040727;28;20041;-35
2024/02/24 00:48:41;;;;;;;1.25;1.15;;;6.40;99.90;;;;;;5042534;28;20028;-36
2024/02/24 00:51:06;;;;;;;1.02;1.00;;;6.40;99.90;;;;;;5041818;28;20044;-36
2024/02/24 00:53:32;;;;;;;2.03;1.27;;;6.30;99.90;;;;;;5040908;28;20036;-37
2024/02/24 00:55:57;;;;;;;1.17;1.08;;;6.30;99.90;;;;;;5041908;28;20025;-38
2024/02/24 00:58:23;;;;;;;2.80;0.90;;;6.30;99.90;;;;;;5040526;28;20032;-37
2024/02/24 01:00:48;;;;;;;1.33;1.10;;;6.20;99.90;;;;;;5040230;28;20055;-35
2024/02/24 01:03:14;;;;;;;2.38;1.20;;;6.20;99.90;;;;;;5041165;28;20053;-35
2024/02/24 01:05:41;;;;;;;2.10;1.55;;;6.20;99.90;;;;;;5041348;28;20036;-33
2024/02/24 01:08:07;;;;;;;1.60;1.50;;;6.10;99.90;;;;;;5039904;28;20120;-33
2024/02/24 01:10:33;;;;;;;1.20;1.10;;;6.10;99.90;;;;;;5041156;28;20048;-34
2024/02/24 01:12:59;;;;;;;1.38;1.20;;;6.20;99.90;;;;;;5040281;28;20044;-37
2024/02/24 01:15:25;;;;;;;1.92;1.50;;;6.10;99.90;;;;;;5041201;28;20017;-36
2024/02/24 01:17:55;;;;;;;1.50;1.35;;;6.10;99.90;;;;;;5040673;28;20024;-33
2024/02/24 01:20:20;;;;;;;2.17;1.30;;;6.10;99.90;;;;;;5040186;28;20124;-35
2024/02/24 01:22:51;;;;;;;1.67;1.30;;;6.10;99.90;;;;;;5041151;28;20089;-34
2024/02/24 01:25:18;;;;;;;2.42;1.33;;;6.00;99.90;;;;;;5041172;28;20029;-34
2024/02/24 01:27:43;;;;;;;1.65;1.55;;;6.00;99.90;;;;;;5040406;28;20039;-35
2024/02/24 01:30:12;;;;;;;2.20;1.60;;;6.00;99.90;;;;;;5040875;28;20017;-34
2024/02/24 01:32:37;;;;;;;2.45;1.42;;;6.00;99.90;;;;;;5040825;28;20029;-37
2024/02/24 01:35:03;;;;;;;1.45;1.00;;;6.00;99.90;;;;;;5040296;28;20067;-37
2024/02/24 01:37:29;;;;;;;1.08;0.90;;;6.00;99.90;;;;;;5040299;28;20028;-37
2024/02/24 01:39:54;;;;;;;2.38;1.40;;;5.90;99.90;;;;;;5040295;28;20025;-37
2024/02/24 01:42:20;;;;;;;1.58;1.45;;;5.90;99.90;;;;;;5039601;28;20400;-34
2024/02/24 01:44:46;;;;;;;1.38;1.20;;;5.90;99.90;;;;;;5040008;28;20029;-32
2024/02/24 01:47:11;;;;;;;1.63;1.30;;;5.90;99.90;;;;;;5040228;28;20102;-33
2024/02/24 01:49:40;;;;;;;1.20;1.10;;;5.90;99.90;;;;;;5038963;28;20032;-33
2024/02/24 01:52:06;;;;;;;1.55;1.33;;;5.90;99.90;;;;;;5039991;28;20067;-34
2024/02/24 01:54:35;;;;;;;1.55;1.38;;;5.90;99.90;;;;;;5039592;28;20046;-36
2024/02/24 01:57:02;;;;;;;3.88;1.52;;;5.90;99.90;;;;;;5039412;28;20020;-34
2024/02/24 01:59:28;;;;;;;1.63;1.30;;;5.90;99.90;;;;;;5039606;28;20922;-36
2024/02/24 02:01:54;;;;;;;1.73;1.20;;;5.90;99.90;;;;;;5040896;28;20051;-37
2024/02/24 02:04:19;;;;;;;1.10;0.85;;;5.90;99.90;;;;;;5039709;28;20112;-36
2024/02/24 02:06:46;;;;;;;1.20;1.05;;;5.90;99.90;;;;;;5040782;28;20076;-36
2024/02/24 02:09:11;;;;;;;1.05;0.95;;;5.90;99.90;;;;;;5040213;28;20194;-37
2024/02/24 02:11:37;;;;;;;1.17;1.08;;;5.90;99.90;;;;;;5040543;28;20025;-38
2024/02/24 02:14:04;;;;;;;1.90;1.05;;;5.90;99.90;;;;;;5040079;28;20087;-36
2024/02/24 02:16:31;;;;;;;1.17;0.90;;;6.00;99.90;;;;;;5038681;28;20148;-34
2024/02/24 02:18:57;;;;;;;1.05;0.98;;;6.00;99.90;;;;;;5040045;28;20043;-35
2024/02/24 02:21:24;;;;;;;2.15;0.90;;;6.00;99.90;;;;;;5037939;28;20043;-36
2024/02/24 02:23:52;;;;;;;1.20;0.90;;;6.00;99.90;;;;;;5039345;28;20063;-32
2024/02/24 02:26:18;;;;;;;1.42;1.33;;;6.00;99.90;;;;;;5039401;28;20029;-34
2024/02/24 02:28:44;;;;;;;1.02;1.00;;;6.00;99.90;;;;;;5039409;28;20040;-32
2024/02/24 02:31:10;;;;;;;1.90;1.10;;;6.00;99.90;;;;;;5038635;28;20462;-32
2024/02/24 02:33:36;;;;;;;1.92;1.02;;;6.10;99.90;;;;;;5039215;28;20020;-31
2024/02/24 02:36:02;;;;;;;1.05;0.95;;;6.00;99.90;;;;;;5039228;28;20025;-32
2024/02/24 02:38:27;;;;;;;1.90;1.15;;;6.10;99.90;;;;;;5038259;28;20486;-35
2024/02/24 02:40:53;;;;;;;3.75;1.10;;;6.10;99.90;;;;;;5039428;28;20104;-30
2024/02/24 02:43:18;;;;;;;1.52;1.00;;;6.10;99.90;;;;;;5039047;28;20750;-33
2024/02/24 02:45:44;;;;;;;1.35;0.82;;;6.10;99.90;;;;;;5038931;28;20036;-33
2024/02/24 02:48:13;;;;;;;1.05;1.00;;;6.00;99.90;;;;;;5039127;28;20606;-35
2024/02/24 02:50:38;;;;;;;1.13;0.85;;;6.00;99.90;;;;;;5039701;28;20029;-31
2024/02/24 02:53:04;;;;;;;1.13;0.98;;;6.00;99.90;;;;;;5038497;28;20037;-36
2024/02/24 02:55:29;;;;;;;2.10;0.98;;;5.90;99.90;;;;;;5038764;28;20474;-36
2024/02/24 02:57:55;;;;;;;1.30;0.80;;;5.90;99.90;;;;;;5039304;28;20148;-35
2024/02/24 03:00:21;;;;;;;1.15;0.85;;;5.90;99.90;;;;;;5038332;28;20040;-33
2024/02/24 03:02:47;;;;;;;1.50;1.02;;;5.90;99.90;;;;;;5039360;28;20029;-35
2024/02/24 03:05:12;;;;;;;1.45;1.23;;;5.90;99.90;;;;;;5039670;28;20060;-34
2024/02/24 03:07:38;;;;;;;0.70;0.68;;;5.90;99.90;;;;;;5038371;28;20043;-34
2024/02/24 03:10:04;;;;;;;1.23;0.80;;;6.00;99.90;;;;;;5038913;28;20090;-36
2024/02/24 03:12:30;;;;;;;1.08;0.90;;;6.00;99.90;;;;;;5038453;28;20084;-34
2024/02/24 03:14:56;;;;;;;1.88;0.65;;;6.00;99.90;;;;;;5039714;28;20107;-34
2024/02/24 03:17:22;;;;;;;0.80;0.80;;;6.00;99.90;;;;;;5038615;28;20611;-35
2024/02/24 03:19:47;;;;;;;0.73;0.73;;;6.00;99.90;;;;;;5039060;28;20021;-35
2024/02/24 03:22:13;;;;;;;0.70;0.70;;;6.10;99.90;;;;;;5039251;28;20380;-36
2024/02/24 03:24:43;;;;;;;0.70;0.70;;;6.10;99.90;;;;;;5039183;28;20045;-36
2024/02/24 03:27:11;;;;;;;0.95;0.70;;;6.10;99.90;;;;;;5038302;28;20858;-33
2024/02/24 03:29:37;;;;;;;0.88;0.77;;;6.10;99.90;;;;;;5039256;28;20412;-31
2024/02/24 03:32:03;;;;;;;0.95;0.80;;;6.10;99.90;;;;;;5039272;28;20021;-30
2024/02/24 03:34:29;;;;;;;1.50;0.90;;;6.10;99.90;;;;;;5041621;28;20025;-38
2024/02/24 03:36:55;;;;;;;0.77;0.75;;;6.20;99.90;;;;;;5041970;28;20037;-34
2024/02/24 03:39:21;;;;;;;2.53;0.80;;;6.20;99.90;;;;;;5041808;28;20040;-35
2024/02/24 03:41:47;;;;;;;0.93;0.93;;;6.20;99.90;;;;;;5042683;28;20733;-37
2024/02/24 03:44:13;;;;;;;0.75;0.75;;;6.20;99.90;;;;;;5039333;28;20028;-34
2024/02/24 03:46:39;;;;;;;0.98;0.88;;;6.30;99.90;;;;;;5042481;28;20080;-35
2024/02/24 03:49:05;;;;;;;0.88;0.68;;;6.30;99.90;;;;;;5042285;28;20041;-34
2024/02/24 03:51:30;;;;;;;1.10;0.70;;;6.30;99.90;;;;;;5042535;28;20064;-35
2024/02/24 03:53:56;;;;;;;1.00;0.57;;;6.30;99.90;;;;;;5043148;28;20856;-33
2024/02/24 03:56:28;;;;;;;0.75;0.75;;;6.30;99.90;;;;;;5041219;28;20068;-31
2024/02/24 03:58:56;;;;;;;0.80;0.80;;;6.30;99.90;;;;;;5041512;28;20132;-34
2024/02/24 04:01:21;;;;;;;0.82;0.82;;;6.30;99.90;;;;;;5042192;28;20261;-34
2024/02/24 04:03:47;;;;;;;0.70;0.70;;;6.30;99.90;;;;;;5041406;28;20460;-36
2024/02/24 04:06:14;;;;;;;0.85;0.70;;;6.30;99.90;;;;;;5042234;28;20029;-34
2024/02/24 04:08:40;;;;;;;1.20;0.90;;;6.30;99.90;;;;;;5040950;28;20028;-36
2024/02/24 04:11:08;;;;;;;1.63;0.90;;;6.30;99.90;;;;;;5041676;28;20673;-37
2024/02/24 04:13:34;;;;;;;1.15;0.90;;;6.30;99.90;;;;;;5041781;28;20064;-35
2024/02/24 04:15:59;;;;;;;1.27;0.82;;;6.30;99.90;;;;;;5042083;28;20493;-34
2024/02/24 04:18:25;;;;;;;0.98;0.85;;;6.30;99.90;;;;;;5041491;28;20751;-35
2024/02/24 04:20:50;;;;;;;0.75;0.70;;;6.20;99.90;;;;;;5041567;28;20033;-35
2024/02/24 04:23:19;;;;;;;0.80;0.80;;;6.20;99.90;;;;;;5041255;28;20059;-31
2024/02/24 04:25:45;;;;;;;0.80;0.80;;;6.20;99.90;;;;;;5042023;28;20468;-37
2024/02/24 04:28:12;;;;;;;0.77;0.77;;;6.10;99.90;;;;;;5042047;28;20041;-31
2024/02/24 04:30:38;;;;;;;1.50;1.00;;;6.10;99.90;;;;;;5040590;28;20541;-35
2024/02/24 04:33:04;;;;;;;1.08;0.90;;;6.00;99.90;;;;;;5041815;28;20141;-33
2024/02/24 04:35:30;;;;;;;0.73;0.73;;;6.00;99.90;;;;;;5040873;28;20033;-34
2024/02/24 04:37:55;;;;;;;1.42;0.90;;;6.00;99.90;;;;;;5041387;28;20032;-35
2024/02/24 04:40:21;;;;;;;1.10;1.00;;;6.00;99.90;;;;;;5041150;28;20029;-36
2024/02/24 04:42:46;;;;;;;0.90;0.90;;;6.00;99.90;;;;;;5042139;28;20040;-36
2024/02/24 04:45:12;;;;;;;1.55;0.95;;;5.90;99.90;;;;;;5039821;28;20036;-36
2024/02/24 04:47:37;;;;;;;1.10;1.00;;;6.00;99.90;;;;;;5041175;28;20041;-32
2024/02/24 04:50:04;;;;;;;1.08;0.90;;;6.00;99.90;;;;;;5041248;28;20025;-33
2024/02/24 04:52:30;;;;;;;1.17;1.08;;;6.00;99.90;;;;;;5040837;28;20120;-36
2024/02/24 04:54:55;;;;;;;2.45;1.05;;;6.00;99.90;;;;;;5041296;28;20021;-34
2024/02/24 04:57:21;;;;;;;1.20;0.93;;;6.00;99.90;;;;;;5040750;28;20040;-35
2024/02/24 04:59:46;;;;;;;0.90;0.90;;;6.10;99.90;;;;;;5041156;28;20120;-33
2024/02/24 05:02:12;;;;;;;0.98;0.88;;;6.10;99.90;;;;;;5040632;28;20434;-34
2024/02/24 05:04:37;;;;;;;1.95;1.08;;;6.20;99.90;;;;;;5041256;28;20033;-36
2024/02/24 05:07:03;;;;;;;1.20;1.10;;;6.20;99.90;;;;;;5040483;28;20740;-35
2024/02/24 05:09:29;;;;;;;1.45;1.35;;;6.20;99.90;;;;;;5041187;28;20678;-36
2024/02/24 05:11:54;;;;;;;1.27;1.17;;;6.30;99.90;;;;;;5040418;28;20629;-36
2024/02/24 05:14:20;;;;;;;1.40;1.20;;;6.30;99.90;;;;;;5040674;28;20756;-36
2024/02/24 05:16:45;;;;;;;1.52;1.27;;;6.40;99.90;;;;;;5040579;28;20478;-34
2024/02/24 05:19:11;;;;;;;1.98;1.60;;;6.40;99.90;;;;;;5040017;28;20821;-32
2024/02/24 05:21:37;;;;;;;1.58;1.20;;;6.40;99.90;;;;;;5040994;28;20025;-33
2024/02/24 05:24:03;;;;;;;1.60;1.50;;;6.50;99.90;;;;;;5040934;28;20036;-35
2024/02/24 05:26:30;;;;;;;1.23;1.13;;;6.50;99.90;;;;;;5039685;28;20029;-33
2024/02/24 05:28:56;;;;;;;1.40;1.30;;;6.50;99.90;;;;;;5040592;28;20393;-34
2024/02/24 05:31:23;;;;;;;1.25;1.17;;;6.50;99.90;;;;;;5039918;28;20017;-32
2024/02/24 05:33:50;;;;;;;1.40;1.25;;;6.50;99.90;;;;;;5040338;28;20028;-36
2024/02/24 05:36:16;;;;;;;3.47;1.55;;;6.60;99.90;;;;;;5039523;28;20017;-34
2024/02/24 05:38:45;;;;;;;1.77;1.30;;;6.60;99.90;;;;;;5040297;28;20029;-30
2024/02/24 05:41:12;;;;;;;1.35;1.23;;;6.60;99.90;;;;;;5040059;28;20358;-33
2024/02/24 05:43:40;;;;;;;2.25;1.25;;;6.60;99.90;;;;;;5040977;28;20404;-32
2024/02/24 05:46:06;;;;;;;0.90;0.90;;;6.60;99.90;;;;;;5040172;28;20017;-34
2024/02/24 05:48:35;;;;;;;1.35;1.25;;;6.70;99.90;;;;;;5039667;28;20128;-39
2024/02/24 05:51:04;;;;;;;1.27;1.17;;;6.60;99.90;;;;;;5040178;28;20031;-36
2024/02/24 05:53:32;;;;;;;1.00;1.00;;;6.60;99.90;;;;;;5040871;28;20075;-33
2024/02/24 05:55:58;;;;;;;1.13;1.00;;;6.70;99.90;;;;;;5040268;28;20060;-32
2024/02/24 05:58:24;;;;;;;1.20;1.10;;;6.70;99.90;;;;;;5040146;28;20029;-31
2024/02/24 06:00:50;;;;;;;1.50;1.40;;;6.70;99.90;;;;;;5039916;28;20013;-32
2024/02/24 06:03:15;;;;;;;1.35;1.25;;;6.70;99.90;;;;;;5038651;28;20559;-34
2024/02/24 06:05:41;;;;;;;1.70;1.10;;;6.70;99.90;;;;;;5020436;28;20040;-32
2024/02/24 06:08:07;;;;;;;2.08;1.40;;;6.70;99.90;;;;;;5033614;28;20033;-35
2024/02/24 06:10:32;;;;;;;1.50;1.40;;;6.70;99.90;;;;;;5039151;28;20017;-34
2024/02/24 06:13:07;;;;;;;1.23;1.13;;;6.70;99.90;;;;;;5039515;28;20077;-33
2024/02/24 06:15:32;;;;;;;1.40;1.30;;;6.80;99.90;;;;;;5038774;28;20079;-31
2024/02/24 06:17:58;;;;;;;1.25;1.08;;;6.70;99.90;;;;;;5039227;28;20519;-32
2024/02/24 06:20:25;;;;;;;1.35;1.10;;;6.70;99.90;;;;;;5039989;28;20025;-31
2024/02/24 06:22:50;;;;;;;1.15;1.10;;;6.80;99.90;;;;;;5039809;28;20024;-31
2024/02/24 06:25:16;;;;;;;1.38;1.27;;;6.70;99.90;;;;;;5039522;28;20462;-32
2024/02/24 06:27:41;;;;;;;1.60;1.20;;;6.70;99.90;;;;;;5039882;28;20045;-33
2024/02/24 06:30:08;;;;;;;1.65;1.45;;;6.80;99.90;;;;;;5038443;28;20031;-33
2024/02/24 06:32:33;;;;;;;1.30;1.20;;;6.70;99.90;;;;;;5039672;28;20028;-36
2024/02/24 06:34:59;;;;;;;1.50;1.23;;;6.80;99.90;;;;;;5040007;28;20024;-32
2024/02/24 06:37:25;;;;;;;1.80;1.38;;;6.80;99.90;;;;;;5038333;28;20086;-32
2024/02/24 06:39:50;;;;;;;1.33;1.13;;;6.80;99.90;;;;;;5039397;28;20503;-31
2024/02/24 06:42:16;;;;;;;1.20;1.10;;;6.80;99.90;;;;;;5039286;28;20555;-34
2024/02/24 06:44:42;;;;;;;1.23;1.10;;;6.80;99.90;;;;;;5038267;28;20091;-32
2024/02/24 06:47:14;;;;;;;1.27;1.17;;;6.80;99.90;;;;;;5039566;28;20089;-34
2024/02/24 06:49:39;;;;;;;1.52;0.90;;;6.70;99.90;;;;;;5039425;28;20525;-34
2024/02/24 06:52:05;;;;;;;1.00;1.00;;;6.70;99.90;;;;;;5039131;28;20593;-33
2024/02/24 06:54:31;;;;;;;1.60;1.48;;;6.70;99.90;;;;;;5039377;28;20144;-34
2024/02/24 06:56:56;;;;;;;1.58;1.20;;;6.70;99.90;;;;;;5040072;28;20029;-36
2024/02/24 06:59:22;;;;;;;1.60;1.30;;;6.70;99.90;;;;;;5038123;28;20086;-35
2024/02/24 07:01:48;;;;;;;1.17;1.08;;;6.70;99.90;;;;;;5039850;28;20047;-32
2024/02/24 07:04:15;;;;;;;1.63;1.35;;;6.70;99.90;;;;;;5039644;28;20035;-33
2024/02/24 07:06:41;;;;;;;0.98;0.98;;;6.70;99.90;;;;;;5038476;28;20041;-32
2024/02/24 07:09:07;;;;;;;2.60;1.38;;;6.70;99.90;;;;;;5042569;28;20021;-34
2024/02/24 07:11:33;;;;;;;1.70;1.50;;;6.70;99.90;;;;;;5042294;28;20024;-35
2024/02/24 07:13:59;;;;;;;1.33;1.23;;;6.80;99.90;;;;;;5042933;28;20108;-35
2024/02/24 07:16:24;;;;;;;1.13;1.10;;;6.80;99.90;;;;;;5042663;28;20853;-35
2024/02/24 07:18:53;;;;;;;1.50;1.40;;;6.80;99.90;;;;;;5042845;28;20021;-32
2024/02/24 07:21:19;;;;;;;1.52;1.30;;;6.80;99.90;;;;;;5042520;28;20025;-33
2024/02/24 07:23:49;;;;;;;2.20;1.63;;;6.90;99.90;;;;;;5043317;28;20475;-36
2024/02/24 07:26:15;;;;;;;2.85;1.48;;;6.90;99.90;;;;;;5042351;28;20041;-36
2024/02/24 07:28:40;;;;;;;1.30;1.20;;;6.90;99.90;;;;;;5043249;28;20044;-31
2024/02/24 07:31:06;;;;;;;1.50;1.40;;;6.90;99.90;;;;;;5043367;28;20079;-37
2024/02/24 07:33:32;;;;;;;2.55;1.27;;;6.90;99.90;;;;;;5042132;28;20097;-33
2024/02/24 07:36:00;;;;;;;1.00;1.00;;;7.00;99.90;;;;;;5042809;28;20060;-32
2024/02/24 07:38:26;;;;;;;1.77;1.35;;;7.00;99.90;;;;;;5042418;28;20817;-35
2024/02/24 07:40:55;;;;;;;1.60;1.50;;;7.00;99.90;;;;;;5042311;28;20112;-32
2024/02/24 07:43:21;;;;;;;1.38;1.20;;;7.00;99.90;;;;;;5042589;28;20025;-33
2024/02/24 07:45:47;;;;;;;1.50;1.38;;;7.00;99.90;;;;;;5043191;28;20025;-31
2024/02/24 07:48:12;;;;;;;1.75;1.50;;;7.00;99.90;;;;;;5041630;28;20056;-32
2024/02/24 07:50:38;;;;;;;1.75;1.58;;;7.00;99.90;;;;;;5042039;28;20815;-34
2024/02/24 07:53:04;;;;;;;1.90;1.75;;;7.10;99.90;;;;;;5042586;28;20032;-34
2024/02/24 07:55:30;;;;;;;2.22;1.27;;;7.00;99.90;;;;;;5042264;28;20469;-37
2024/02/24 07:57:56;;;;;;;1.60;1.50;;;7.10;99.90;;;;;;5042638;28;20029;-32
2024/02/24 08:00:22;;;;;;;2.72;1.80;;;7.10;99.90;;;;;;5042752;28;20031;-34
2024/02/24 08:02:47;;;;;;;2.20;1.90;;;7.10;99.90;;;;;;5042149;28;20041;-34
2024/02/24 08:05:13;;;;;;;2.17;1.80;;;7.10;99.90;;;;;;5042692;28;20083;-33
2024/02/24 08:07:38;;;;;;;2.28;1.85;;;7.20;99.90;;;;;;5042199;28;20043;-36
2024/02/24 08:10:04;;;;;;;2.25;1.73;;;7.20;99.90;;;;;;5041156;28;20072;-36
2024/02/24 08:12:30;;;;;;;1.85;1.75;;;7.20;99.90;;;;;;5041009;28;20400;-34
2024/02/24 08:14:55;;;;;;;2.47;1.58;;;7.30;99.90;;;;;;5041581;28;20029;-35
2024/02/24 08:17:21;;;;;;;1.50;1.40;;;7.30;99.90;;;;;;5041025;28;20795;-34
2024/02/24 08:19:46;;;;;;;1.70;1.60;;;7.40;99.90;;;;;;5040737;28;20029;-31
2024/02/24 08:22:12;;;;;;;2.13;1.75;;;7.40;99.90;;;;;;5040697;28;20048;-32
2024/02/24 08:24:38;;;;;;;1.60;1.50;;;7.50;99.90;;;;;;5042119;28;20024;-30
2024/02/24 08:27:03;;;;;;;2.03;1.83;;;7.50;99.90;;;;;;5041819;28;20021;-36
2024/02/24 08:29:32;;;;;;;1.70;1.60;;;7.50;99.90;;;;;;5041281;28;20033;-33
2024/02/24 08:31:58;;;;;;;2.13;1.60;;;7.60;99.90;;;;;;5041971;28;20423;-34
2024/02/24 08:34:24;;;;;;;1.80;1.70;;;7.60;99.90;;;;;;5041215;28;20025;-34
2024/02/24 08:36:51;;;;;;;2.33;1.60;;;7.60;99.90;;;;;;5041052;28;20020;-32
2024/02/24 08:39:17;;;;;;;1.65;1.55;;;7.60;99.90;;;;;;5041724;28;20017;-32
2024/02/24 08:41:42;;;;;;;2.15;1.73;;;7.60;99.90;;;;;;5041887;28;20765;-32
2024/02/24 08:44:08;;;;;;;1.60;1.50;;;7.60;99.90;;;;;;5040695;28;20021;-35
2024/02/24 08:46:34;;;;;;;2.00;1.80;;;7.60;99.90;;;;;;5041233;28;20029;-36
2024/02/24 08:48:59;;;;;;;2.65;1.40;;;7.60;99.90;;;;;;5041054;28;20128;-32
2024/02/24 08:51:26;;;;;;;1.95;1.70;;;7.60;99.90;;;;;;5040229;28;20499;-29
2024/02/24 08:53:52;;;;;;;1.70;1.60;;;7.70;99.90;;;;;;5041443;28;20487;-31
2024/02/24 08:56:21;;;;;;;1.70;1.60;;;7.70;99.90;;;;;;5041024;28;20120;-36
2024/02/24 08:58:47;;;;;;;3.35;1.80;;;7.70;99.90;;;;;;5040701;28;20762;-34
2024/02/24 09:01:14;;;;;;;3.25;1.83;;;7.70;99.90;;;;;;5041273;28;20033;-32
2024/02/24 09:03:39;;;;;;;1.80;1.70;;;7.70;99.90;;;;;;5040577;28;20963;-33
2024/02/24 09:06:05;;;;;;;1.70;1.60;;;7.70;99.90;;;;;;5040099;28;20045;-33
2024/02/24 09:08:31;;;;;;;1.63;1.50;;;7.80;99.90;;;;;;5040653;28;20128;-33
2024/02/24 09:10:57;;;;;;;1.65;1.55;;;7.80;99.90;;;;;;5041643;28;20036;-35
2024/02/24 09:13:23;;;;;;;2.85;1.80;;;7.90;99.90;;;;;;5039936;28;20081;-35
2024/02/24 09:15:51;;;;;;;1.65;1.55;;;8.00;99.90;;;;;;5041091;28;20031;-36
2024/02/24 09:18:17;;;;;;;1.63;1.52;;;8.00;99.90;;;;;;5040987;28;20120;-32
2024/02/24 09:20:43;;;;;;;1.70;1.45;;;8.10;99.90;;;;;;5041311;28;20028;-36
2024/02/24 09:23:09;;;;;;;1.80;1.70;;;8.10;99.90;;;;;;5041813;28;20100;-34
2024/02/24 09:25:35;;;;;;;3.22;2.30;;;8.20;99.90;;;;;;5040804;28;20196;-35
2024/02/24 09:28:01;;;;;;;1.90;1.80;;;8.20;99.90;;;;;;5041011;28;20041;-34
2024/02/24 09:30:26;;;;;;;2.20;1.98;;;8.10;99.90;;;;;;5039579;28;20673;-37
2024/02/24 09:32:53;;;;;;;2.63;1.95;;;8.10;99.90;;;;;;5040427;28;20037;-34
2024/02/24 09:35:25;;;;;;;1.60;1.50;;;8.00;99.90;;;;;;5039807;28;20025;-36
2024/02/24 09:37:50;;;;;;;1.50;1.40;;;7.90;99.90;;;;;;5020998;28;20029;-35
2024/02/24 09:40:16;;;;;;;1.20;1.10;;;7.80;99.90;;;;;;5034557;28;20064;-35
2024/02/24 09:42:42;;;;;;;1.58;1.05;;;7.60;99.90;;;;;;5040187;28;20033;-34
2024/02/24 09:45:12;;;;;;;1.00;1.00;;;7.40;99.90;;;;;;5039589;28;20545;-33
2024/02/24 09:47:40;;;;;;;1.20;1.10;;;7.30;99.90;;;;;;5040004;28;20037;-34
2024/02/24 09:50:10;;;;;;;1.30;1.20;;;7.30;99.90;;;;;;5040441;28;20124;-32
2024/02/24 09:52:35;;;;;;;2.92;1.42;;;7.10;99.90;;;;;;5040620;28;20021;-35
2024/02/24 09:55:03;;;;;;;2.42;1.70;;;7.10;99.90;;;;;;5040394;28;20715;-36
2024/02/24 09:57:32;;;;;;;2.00;1.80;;;7.10;99.90;;;;;;5040241;28;20025;-34
2024/02/24 09:59:58;;;;;;;1.55;1.45;;;7.00;99.90;;;;;;5040427;28;20100;-40
2024/02/24 10:02:24;;;;;;;1.85;1.63;;;7.00;99.90;;;;;;5039925;28;20107;-35
2024/02/24 10:04:51;;;;;;;1.75;1.65;;;7.00;99.90;;;;;;5041009;28;20025;-34
2024/02/24 10:07:17;;;;;;;1.60;1.50;;;7.00;99.90;;;;;;5040596;28;20142;-34
2024/02/24 10:09:43;;;;;;;1.95;1.50;;;7.00;99.90;;;;;;5039731;28;20025;-35
2024/02/24 10:12:08;;;;;;;2.90;1.98;;;7.00;99.90;;;;;;5040003;28;20064;-36
2024/02/24 10:14:34;;;;;;;2.28;2.10;;;7.00;99.90;;;;;;5039325;28;20049;-35
2024/02/24 10:17:00;;;;;;;2.45;2.00;;;7.00;99.90;;;;;;5039779;28;20122;-36
2024/02/24 10:19:33;;;;;;;2.05;1.80;;;6.90;99.90;;;;;;5039963;28;20020;-36
2024/02/24 10:22:05;;;;;;;2.03;1.75;;;6.90;99.90;;;;;;5039462;28;20868;-36
2024/02/24 10:24:34;;;;;;;2.10;1.90;;;6.90;99.90;;;;;;5039775;28;20025;-34
2024/02/24 10:27:01;;;;;;;2.22;1.98;;;6.90;99.90;;;;;;5039522;28;20028;-33
2024/02/24 10:29:30;;;;;;;2.20;2.00;;;7.00;99.90;;;;;;5038380;28;20776;-34
2024/02/24 10:32:00;;;;;;;2.38;1.95;;;7.00;99.90;;;;;;5039581;28;20075;-34
2024/02/24 10:34:26;;;;;;;2.65;1.88;;;7.00;99.90;;;;;;5039255;28;20035;-32
2024/02/24 10:36:52;;;;;;;2.28;2.08;;;7.00;99.90;;;;;;5039127;28;20029;-31
2024/02/24 10:39:18;;;;;;;2.22;1.95;;;7.10;99.90;;;;;;5039201;28;20048;-34
2024/02/24 10:41:47;;;;;;;2.40;2.20;;;7.10;99.90;;;;;;5038991;28;20017;-33
2024/02/24 10:44:14;;;;;;;2.13;2.00;;;7.10;99.90;;;;;;5038892;28;20048;-31
2024/02/24 10:46:42;;;;;;;2.30;2.05;;;7.10;99.90;;;;;;5039368;28;20479;-35
2024/02/24 10:49:09;;;;;;;2.28;2.08;;;7.20;99.90;;;;;;5039245;28;20102;-37
2024/02/24 10:51:35;;;;;;;3.00;2.45;;;7.20;99.90;;;;;;5039031;28;20048;-36
2024/02/24 10:54:11;;;;;;;2.90;2.47;;;7.30;99.90;;;;;;5039943;28;20363;-36
2024/02/24 10:56:37;;;;;;;3.25;2.95;;;7.30;99.90;;;;;;5039216;28;20079;-32
2024/02/24 10:59:06;;;;;;;4.82;2.72;;;7.40;99.90;;;;;;5039832;28;20545;-34
2024/02/24 11:01:41;;;;;;;4.05;2.40;;;7.50;99.90;;;;;;5039804;28;20496;-35
2024/02/24 11:04:09;;;;;;;2.75;2.50;;;7.60;99.90;;;;;;5039170;28;20447;-35
2024/02/24 11:06:52;;;;;;;3.05;2.75;;;7.70;99.90;;;;;;5038523;28;20273;-33
2024/02/24 11:09:25;;;;;;;3.47;2.92;;;7.70;99.90;;;;;;5037402;28;20029;-34
2024/02/24 11:11:51;;;;;;;2.42;2.22;;;7.70;99.90;;;;;;5038299;28;20084;-35
2024/02/24 11:14:19;;;;;;;3.00;2.25;;;7.70;99.90;;;;;;5039257;28;20104;-35
2024/02/24 11:16:45;;;;;;;3.13;2.40;;;7.70;99.90;;;;;;5039548;28;20060;-36
2024/02/24 11:19:11;;;;;;;2.55;1.85;;;7.70;99.90;;;;;;5038267;28;20866;-34
2024/02/24 11:22:02;;;;;;;1.70;1.60;;;7.80;99.90;;;;;;5039475;28;20036;-35
2024/02/24 11:24:36;;;;;;;2.28;1.80;;;7.90;99.90;;;;;;5037891;28;20032;-35
2024/02/24 11:27:03;;;;;;;2.40;2.13;;;8.00;99.90;;;;;;5038383;28;20047;-34
2024/02/24 11:29:35;;;;;;;2.20;1.90;;;8.10;99.90;;;;;;5039045;28;20058;-35
2024/02/24 11:32:11;;;;;;;1.83;1.67;;;8.20;99.90;;;;;;5039076;28;20028;-35
2024/02/24 11:34:45;;;;;;;2.33;2.13;;;8.30;99.90;;;;;;5039373;28;20512;-34
2024/02/24 11:37:15;;;;;;;2.50;2.10;;;8.30;99.90;;;;;;5040159;28;20135;-33
2024/02/24 11:39:51;;;;;;;1.70;1.60;;;8.40;99.90;;;;;;5038839;28;20037;-33
2024/02/24 11:42:20;;;;;;;1.88;1.67;;;8.50;99.90;;;;;;5039014;28;20060;-39
2024/02/24 11:44:46;;;;;;;1.60;1.50;;;8.60;99.90;;;;;;5038966;28;20427;-35
2024/02/24 11:47:16;;;;;;;2.00;1.80;;;8.70;99.90;;;;;;5038454;28;20078;-35
2024/02/24 11:49:46;;;;;;;2.08;1.92;;;8.90;99.90;;;;;;5038489;28;20492;-36
2024/02/24 11:52:11;;;;;;;2.00;1.80;;;8.90;99.90;;;;;;5038865;28;20033;-33
2024/02/24 11:54:37;;;;;;;4.15;1.92;;;8.90;99.90;;;;;;5040407;28;20782;-37
2024/02/24 11:57:06;;;;;;;2.45;1.80;;;8.90;99.90;;;;;;5043010;28;20118;-37
2024/02/24 11:59:31;;;;;;;1.92;1.73;;;8.70;99.90;;;;;;5042166;28;20786;-32
2024/02/24 12:02:00;;;;;;;1.40;1.30;;;8.70;99.90;;;;;;5041631;28;20036;-33
2024/02/24 12:04:26;;;;;;;2.30;2.00;;;8.60;99.90;;;;;;5041285;28;20086;-31
2024/02/24 12:06:53;;;;;;;1.70;1.42;;;8.60;99.90;;;;;;5041970;28;20041;-33
2024/02/24 12:09:22;;;;;;;3.03;1.45;;;8.60;99.90;;;;;;5041215;28;20027;-33
2024/02/24 12:11:48;;;;;;;1.48;1.38;;;8.60;99.90;;;;;;5042279;28;20126;-37
2024/02/24 12:14:17;;;;;;;1.70;1.17;;;8.60;99.90;;;;;;5041421;28;20578;-37
2024/02/24 12:16:42;;;;;;;1.90;1.30;;;8.60;99.90;;;;;;5041967;28;20640;-35
2024/02/24 12:19:09;;;;;;;1.38;1.27;;;8.60;99.90;;;;;;5042055;28;20033;-36
2024/02/24 12:21:34;;;;;;;2.92;1.17;;;8.60;99.90;;;;;;5041614;28;20149;-36
2024/02/24 12:24:00;;;;;;;1.55;1.20;;;8.60;99.90;;;;;;5042236;28;20104;-38
2024/02/24 12:26:26;;;;;;;2.10;1.40;;;8.60;99.90;;;;;;5041086;28;20087;-32
2024/02/24 12:28:52;;;;;;;2.22;1.15;;;8.60;99.90;;;;;;5041874;28;20037;-33
2024/02/24 12:31:18;;;;;;;1.92;0.75;;;8.70;99.90;;;;;;5041112;28;20023;-36
2024/02/24 12:33:45;;;;;;;2.83;1.33;;;8.60;99.90;;;;;;5041631;28;20467;-37
2024/02/24 12:36:12;;;;;;;1.88;0.85;;;8.60;99.90;;;;;;5041067;28;20049;-34
2024/02/24 12:38:38;;;;;;;1.83;0.98;;;8.50;99.90;;;;;;5041790;28;20037;-36
2024/02/24 12:41:11;;;;;;;1.30;1.20;;;8.50;99.90;;;;;;5041483;28;20029;-35
2024/02/24 12:43:38;;;;;;;;;;;8.40;99.90;;;;;;5041089;28;20055;-33
2024/02/24 12:46:04;;;;;;;2.70;1.17;;;8.40;99.90;;;;;;5040678;28;20724;-34
2024/02/24 12:48:30;;;;;;;1.33;1.05;;;8.30;99.90;;;;;;5041172;28;20039;-35
2024/02/24 12:50:56;;;;;;;1.10;1.00;;;8.20;99.90;;;;;;5040542;28;20017;-36
2024/02/24 12:53:23;;;;;;;2.20;1.23;;;8.20;99.90;;;;;;5041727;28;20037;-34